Terminal Aerodrome Forecast
Issued by NWS

Home | Current Version | Previous Version | Text Only | Print | Product List | Glossary On
Versions: 1 2 3 4 5 6 7 8 9 10 11 12 13 14 15 16 17 18
000
FTUS41 KPHI 221131
TAFPNE
TAF
KPNE 221131Z 2212/2312 VRB03KT P6SM OVC035
      TEMPO 2212/2213 6SM -SHRA OVC025
     FM221400 29005KT P6SM VCSH OVC035
     FM221500 31010KT P6SM OVC040
     FM221700 32010G20KT P6SM SCT040
     FM230400 32006KT P6SM SKC=

USA.gov is the U.S. government's official web portal to all federal, state and local government web resources and services.